createdAt,value
2019-03-11T00:01:44.391Z,4.00
2019-03-11T00:04:19.475Z,4.10
2019-03-11T00:06:51.940Z,4.00
2019-03-11T00:09:24.917Z,4.00
2019-03-11T00:11:57.934Z,3.90
2019-03-11T00:14:31.110Z,3.90
2019-03-11T00:17:03.813Z,3.90
2019-03-11T00:19:37.449Z,4.00
2019-03-11T00:22:10.599Z,4.10
2019-03-11T00:24:43.655Z,4.20
2019-03-11T00:27:16.353Z,4.30
2019-03-11T00:29:49.851Z,4.40
2019-03-11T00:32:23.027Z,4.50
2019-03-11T00:34:55.899Z,4.50
2019-03-11T00:37:30.008Z,4.60
2019-03-11T00:40:05.129Z,4.60
2019-03-11T00:42:38.378Z,4.50
2019-03-11T00:45:12.681Z,4.30
2019-03-11T00:47:45.526Z,3.90
2019-03-11T00:50:20.126Z,3.50
2019-03-11T00:52:51.980Z,3.30
2019-03-11T00:55:24.849Z,3.10
2019-03-11T00:57:57.280Z,3.00
2019-03-11T01:00:31.947Z,2.90
2019-03-11T01:03:07.298Z,2.80
2019-03-11T01:05:39.167Z,2.70
2019-03-11T01:08:12.734Z,2.60
2019-03-11T01:10:46.858Z,2.60
2019-03-11T01:13:20.200Z,2.60
2019-03-11T01:15:52.626Z,2.60
2019-03-11T01:18:26.344Z,2.60
2019-03-11T01:20:59.970Z,2.50
2019-03-11T01:23:35.156Z,2.40
2019-03-11T01:26:08.203Z,2.20
2019-03-11T01:28:40.555Z,2.10
2019-03-11T01:31:14.791Z,2.10
2019-03-11T01:33:47.810Z,2.10
2019-03-11T01:36:24.047Z,2.00
2019-03-11T01:38:57.140Z,1.90
2019-03-11T01:41:29.650Z,1.90
2019-03-11T01:44:01.561Z,1.80
2019-03-11T01:46:34.710Z,1.70
2019-03-11T01:49:09.046Z,1.60
2019-03-11T01:51:42.182Z,1.50
2019-03-11T01:54:15.219Z,1.50
2019-03-11T01:56:48.819Z,1.40
2019-03-11T01:59:21.624Z,1.30
2019-03-11T02:01:54.869Z,1.30
2019-03-11T02:04:26.762Z,1.30
2019-03-11T02:06:59.682Z,1.30
2019-03-11T02:09:34.320Z,1.50
2019-03-11T02:12:07.884Z,1.50
2019-03-11T02:14:40.276Z,1.60
2019-03-11T02:17:12.229Z,1.50
2019-03-11T02:19:45.138Z,1.50
2019-03-11T02:22:18.323Z,1.50
2019-03-11T02:24:51.229Z,1.40
2019-03-11T02:27:25.754Z,1.40
2019-03-11T02:30:00.476Z,1.40
2019-03-11T02:32:34.980Z,1.30
2019-03-11T02:35:08.415Z,1.30
2019-03-11T02:37:42.597Z,1.30
2019-03-11T02:40:16.314Z,1.30
2019-03-11T02:42:49.383Z,1.30
2019-03-11T02:45:24.373Z,1.40
2019-03-11T02:47:59.053Z,1.40
2019-03-11T02:50:32.138Z,1.50
2019-03-11T02:53:07.290Z,1.70
2019-03-11T02:55:39.112Z,1.80
2019-03-11T02:58:12.039Z,1.90
2019-03-11T03:00:45.956Z,2.00
2019-03-11T03:03:41.761Z,2.10
2019-03-11T03:06:16.926Z,2.20
2019-03-11T03:08:49.395Z,2.30
2019-03-11T03:11:21.867Z,2.50
2019-03-11T03:13:56.273Z,2.60
2019-03-11T03:16:30.115Z,2.70
2019-03-11T03:19:02.507Z,2.80
2019-03-11T03:21:34.509Z,3.00
2019-03-11T03:24:07.631Z,3.00
2019-03-11T03:26:41.097Z,3.00
2019-03-11T03:29:15.302Z,3.10
2019-03-11T03:31:49.538Z,3.10
2019-03-11T03:34:23.046Z,3.10
2019-03-11T03:36:56.242Z,3.20
2019-03-11T03:39:29.437Z,3.20
2019-03-11T03:42:05.037Z,3.30
2019-03-11T03:44:41.590Z,3.40
2019-03-11T03:47:13.395Z,3.60
2019-03-11T03:49:45.595Z,3.70
2019-03-11T03:52:18.073Z,3.80
2019-03-11T03:54:52.313Z,4.00
2019-03-11T03:57:25.403Z,4.00
2019-03-11T03:59:58.772Z,4.10
2019-03-11T04:02:30.942Z,4.10
2019-03-11T04:05:03.280Z,4.10
2019-03-11T04:07:36.752Z,4.10
2019-03-11T04:10:09.917Z,4.10
2019-03-11T04:12:42.021Z,4.20
2019-03-11T04:15:15.257Z,4.20
2019-03-11T04:17:47.432Z,4.20
2019-03-11T04:20:20.414Z,4.20
2019-03-11T04:22:52.563Z,4.20
2019-03-11T04:25:24.642Z,4.20
2019-03-11T04:27:57.083Z,4.30
2019-03-11T04:30:29.781Z,4.30
2019-03-11T04:33:03.891Z,4.30
2019-03-11T04:35:37.172Z,4.40
2019-03-11T04:38:09.241Z,4.40
2019-03-11T04:40:41.693Z,4.50
2019-03-11T04:43:14.138Z,4.50
2019-03-11T04:45:46.214Z,4.50
2019-03-11T04:48:24.176Z,4.50
2019-03-11T04:50:56.823Z,4.50
2019-03-11T04:53:28.746Z,4.60
2019-03-11T04:56:00.882Z,4.60
2019-03-11T04:58:34.254Z,4.60
2019-03-11T05:01:06.395Z,4.70
2019-03-11T05:03:38.480Z,4.80
2019-03-11T05:06:11.354Z,4.80
2019-03-11T05:08:44.012Z,4.80
2019-03-11T05:11:17.008Z,4.90
2019-03-11T05:13:50.354Z,4.90
2019-03-11T05:16:22.499Z,5.00
2019-03-11T05:18:54.719Z,5.00
2019-03-11T05:21:26.901Z,5.00
2019-03-11T05:23:59.590Z,5.10
2019-03-11T05:26:32.062Z,5.10
2019-03-11T05:29:04.264Z,5.20
2019-03-11T05:31:36.367Z,5.10
2019-03-11T05:34:09.353Z,5.10
2019-03-11T05:36:41.652Z,4.90
2019-03-11T05:39:15.649Z,4.80
2019-03-11T05:41:48.870Z,4.60
2019-03-11T05:44:21.982Z,4.60
2019-03-11T05:46:54.299Z,4.50
2019-03-11T05:49:27.435Z,4.50
2019-03-11T05:51:59.594Z,4.50
2019-03-11T05:54:31.683Z,4.50
2019-03-11T05:57:03.710Z,4.50
2019-03-11T05:59:36.428Z,4.50
2019-03-11T06:02:09.636Z,4.60
2019-03-11T06:04:41.786Z,4.60
2019-03-11T06:07:15.079Z,4.60
2019-03-11T06:09:47.218Z,4.70
2019-03-11T06:12:19.343Z,4.70
2019-03-11T06:14:52.476Z,4.80
2019-03-11T06:17:25.426Z,4.80
2019-03-11T06:20:16.951Z,4.80
2019-03-11T06:22:50.135Z,4.80
2019-03-11T06:25:22.308Z,5.00
2019-03-11T06:27:55.350Z,5.00
2019-03-11T06:30:29.181Z,5.00
2019-03-11T06:33:01.103Z,5.10
2019-03-11T06:35:34.572Z,5.20
2019-03-11T06:38:06.545Z,5.20
2019-03-11T06:40:40.523Z,5.20
2019-03-11T06:43:12.471Z,5.20
2019-03-11T06:45:44.591Z,5.30
2019-03-11T06:48:26.524Z,5.30
2019-03-11T06:50:58.519Z,5.40
2019-03-11T06:53:30.691Z,5.40
2019-03-11T06:56:03.264Z,5.40
2019-03-11T06:58:36.887Z,5.30
2019-03-11T07:01:08.974Z,5.10
2019-03-11T07:03:41.965Z,5.00
2019-03-11T07:06:15.426Z,4.90
2019-03-11T07:08:49.845Z,4.80
2019-03-11T07:11:22.451Z,4.70
2019-03-11T07:13:56.360Z,4.50
2019-03-11T07:16:30.879Z,4.40
2019-03-11T07:19:03.131Z,4.40
2019-03-11T07:21:35.924Z,4.30
2019-03-11T07:24:07.851Z,4.30
2019-03-11T07:26:40.350Z,4.20
2019-03-11T07:29:13.758Z,4.10
2019-03-11T07:31:46.455Z,4.00
2019-03-11T07:34:18.467Z,4.10
2019-03-11T07:36:50.460Z,4.20
2019-03-11T07:39:22.554Z,4.20
2019-03-11T07:41:54.650Z,4.30
2019-03-11T07:44:28.045Z,4.50
2019-03-11T07:47:00.087Z,4.40
2019-03-11T07:49:33.566Z,4.30
2019-03-11T07:52:05.889Z,4.40
2019-03-11T07:54:38.920Z,4.30
2019-03-11T07:57:11.984Z,4.30
2019-03-11T07:59:44.189Z,4.30
2019-03-11T08:02:18.293Z,4.20
2019-03-11T08:04:51.682Z,4.00
2019-03-11T08:07:23.742Z,4.00
2019-03-11T08:09:56.797Z,4.10
2019-03-11T08:12:29.013Z,4.20
2019-03-11T08:15:04.046Z,4.20
2019-03-11T08:17:37.297Z,4.30
2019-03-11T08:20:10.559Z,4.30
2019-03-11T08:22:42.784Z,4.40
2019-03-11T08:25:16.377Z,4.30
2019-03-11T08:27:49.401Z,4.40
2019-03-11T08:30:23.828Z,4.50
2019-03-11T08:32:56.063Z,4.70
2019-03-11T08:35:29.678Z,4.80
2019-03-11T08:38:05.197Z,4.90
2019-03-11T08:40:37.739Z,5.10
2019-03-11T08:43:11.954Z,5.20
2019-03-11T08:45:45.058Z,5.40
2019-03-11T08:48:18.581Z,5.60
2019-03-11T08:50:51.321Z,5.70
2019-03-11T08:53:23.462Z,5.70
2019-03-11T08:55:55.989Z,5.60
2019-03-11T08:58:28.546Z,5.50
2019-03-11T09:01:02.147Z,5.40
2019-03-11T09:03:36.163Z,5.20
2019-03-11T09:06:08.296Z,5.00
2019-03-11T09:08:42.000Z,4.80
2019-03-11T09:11:16.107Z,4.60
2019-03-11T09:13:48.155Z,4.50
2019-03-11T09:16:21.722Z,4.50
2019-03-11T09:18:53.941Z,4.60
2019-03-11T09:21:26.333Z,4.70
2019-03-11T09:23:59.216Z,4.80
2019-03-11T09:26:32.352Z,5.00
2019-03-11T09:29:06.240Z,5.20
2019-03-11T09:31:39.659Z,5.50
2019-03-11T09:34:11.854Z,5.90
2019-03-11T09:36:44.303Z,6.30
2019-03-11T09:39:16.650Z,6.50
2019-03-11T09:41:48.721Z,6.50
2019-03-11T09:44:22.421Z,6.70
2019-03-11T09:46:56.636Z,6.80
2019-03-11T09:49:29.157Z,6.70
2019-03-11T09:52:02.090Z,6.50
2019-03-11T09:54:35.976Z,6.40
2019-03-11T09:57:08.798Z,6.40
2019-03-11T09:59:40.696Z,6.30
2019-03-11T10:02:13.223Z,6.20
2019-03-11T10:04:45.111Z,6.10
2019-03-11T10:07:17.987Z,6.00
2019-03-11T10:09:50.411Z,5.90
2019-03-11T10:12:22.299Z,5.90
2019-03-11T10:14:54.690Z,6.00
2019-03-11T10:17:26.658Z,6.00
2019-03-11T10:19:59.302Z,6.00
2019-03-11T10:22:31.636Z,6.00
2019-03-11T10:25:04.597Z,5.90
2019-03-11T10:27:36.466Z,5.90
2019-03-11T10:30:10.302Z,5.90
2019-03-11T10:32:43.539Z,5.90
2019-03-11T10:35:30.815Z,5.60
2019-03-11T10:37:49.982Z,5.40
2019-03-11T10:40:22.488Z,5.40
2019-03-11T10:42:55.090Z,5.60
2019-03-11T10:45:31.768Z,5.70
2019-03-11T10:48:00.997Z,5.80
2019-03-11T10:50:32.897Z,6.00
2019-03-11T10:53:04.816Z,6.30
2019-03-11T10:55:37.110Z,6.50
2019-03-11T10:58:10.160Z,6.70
2019-03-11T11:00:42.569Z,7.20
2019-03-11T11:03:14.402Z,7.30
2019-03-11T11:05:47.350Z,7.50
2019-03-11T11:08:20.263Z,7.70
2019-03-11T11:10:52.131Z,8.20
2019-03-11T11:13:24.554Z,8.70
2019-03-11T11:15:56.452Z,9.00
2019-03-11T11:18:29.490Z,9.30
2019-03-11T11:21:01.474Z,9.60
2019-03-11T11:23:33.902Z,9.40
2019-03-11T11:26:06.381Z,9.30
2019-03-11T11:28:38.264Z,9.10
2019-03-11T11:31:11.163Z,8.80
2019-03-11T11:33:43.084Z,8.60
2019-03-11T11:36:15.988Z,8.00
2019-03-11T11:38:48.342Z,7.10
2019-03-11T11:41:21.527Z,6.60
2019-03-11T11:43:54.309Z,6.30
2019-03-11T11:46:26.779Z,6.30
2019-03-11T11:48:59.129Z,6.50
2019-03-11T11:51:31.431Z,6.80
2019-03-11T11:54:03.843Z,6.70
2019-03-11T11:56:36.177Z,6.50
2019-03-11T11:59:08.570Z,6.50
2019-03-11T12:01:40.545Z,6.90
2019-03-11T12:04:14.000Z,7.20
2019-03-11T12:06:45.949Z,7.30
2019-03-11T12:09:17.826Z,7.30
2019-03-11T12:11:50.307Z,7.50
2019-03-11T12:14:22.217Z,7.60
2019-03-11T12:16:54.157Z,7.60
2019-03-11T12:19:27.096Z,7.80
2019-03-11T12:21:59.315Z,7.90
2019-03-11T12:24:31.390Z,8.10
2019-03-11T12:27:03.245Z,8.20
2019-03-11T12:29:35.699Z,8.40
2019-03-11T12:32:07.780Z,8.50
2019-03-11T12:34:39.677Z,8.60
2019-03-11T12:37:12.360Z,8.50
2019-03-11T12:39:44.798Z,8.10
2019-03-11T12:42:17.128Z,7.60
2019-03-11T12:44:49.532Z,7.40
2019-03-11T12:47:22.474Z,7.50
2019-03-11T12:49:54.316Z,7.40
2019-03-11T12:52:26.243Z,7.40
2019-03-11T12:54:58.475Z,7.50
2019-03-11T12:57:30.878Z,7.50
2019-03-11T13:00:03.291Z,7.70
2019-03-11T13:02:36.315Z,8.00
2019-03-11T13:05:09.235Z,8.40
2019-03-11T13:07:41.118Z,8.40
2019-03-11T13:10:15.261Z,8.50
2019-03-11T13:12:47.708Z,8.30
2019-03-11T13:15:20.436Z,8.20
2019-03-11T13:17:52.472Z,7.90
2019-03-11T13:20:30.752Z,7.50
2019-03-11T13:23:02.766Z,7.20
2019-03-11T13:25:35.287Z,7.20
2019-03-11T13:28:07.196Z,7.40
2019-03-11T13:30:40.140Z,7.80
2019-03-11T13:33:12.451Z,7.80
2019-03-11T13:35:44.850Z,7.90
2019-03-11T13:38:17.247Z,7.90
2019-03-11T13:40:49.614Z,7.90
2019-03-11T13:43:21.910Z,7.70
2019-03-11T13:45:53.935Z,7.20
2019-03-11T13:48:27.409Z,6.70
2019-03-11T13:50:59.746Z,6.00
2019-03-11T13:53:31.668Z,5.60
2019-03-11T13:56:04.702Z,5.20
2019-03-11T13:58:36.896Z,5.20
2019-03-11T14:01:09.051Z,5.10
2019-03-11T14:03:41.787Z,5.10
2019-03-11T14:06:14.687Z,5.30
2019-03-11T14:08:47.112Z,5.60
2019-03-11T14:11:19.050Z,6.00
2019-03-11T14:13:51.607Z,6.20
2019-03-11T14:16:23.496Z,6.30
2019-03-11T14:18:55.364Z,6.40
2019-03-11T14:21:27.658Z,6.50
2019-03-11T14:23:59.616Z,6.50
2019-03-11T14:26:31.536Z,6.50
2019-03-11T14:29:04.550Z,6.50
2019-03-11T14:31:37.464Z,6.60
2019-03-11T14:34:10.000Z,6.60
2019-03-11T14:36:42.924Z,6.50
2019-03-11T14:39:14.754Z,6.40
2019-03-11T14:41:47.194Z,6.30
2019-03-11T14:44:19.091Z,6.30
2019-03-11T14:46:51.626Z,6.30
2019-03-11T14:49:23.675Z,6.20
2019-03-11T14:51:55.608Z,6.20
2019-03-11T14:54:27.867Z,6.30
2019-03-11T14:57:00.732Z,6.30
2019-03-11T14:59:32.669Z,6.40
2019-03-11T15:02:06.609Z,6.60
2019-03-11T15:04:39.571Z,6.60
2019-03-11T15:07:12.528Z,6.60
2019-03-11T15:09:51.341Z,6.70
2019-03-11T15:12:18.796Z,6.80
2019-03-11T15:14:51.989Z,6.70
2019-03-11T15:17:23.917Z,6.70
2019-03-11T15:19:56.357Z,6.60
2019-03-11T15:22:28.282Z,6.60
2019-03-11T15:25:00.613Z,6.70
2019-03-11T15:27:32.516Z,6.70
2019-03-11T15:30:04.886Z,6.70
2019-03-11T15:32:37.640Z,6.70
2019-03-11T15:35:10.606Z,6.70
2019-03-11T15:37:42.418Z,6.60
2019-03-11T15:40:14.354Z,6.60
2019-03-11T15:42:46.372Z,6.50
2019-03-11T15:45:18.978Z,6.50
2019-03-11T15:47:51.952Z,6.40
2019-03-11T15:50:26.297Z,6.30
2019-03-11T15:52:59.252Z,6.20
2019-03-11T15:55:33.089Z,6.00
2019-03-11T15:58:05.709Z,5.90
2019-03-11T16:00:37.727Z,5.90
2019-03-11T16:03:12.798Z,5.80
2019-03-11T16:05:45.590Z,5.80
2019-03-11T16:08:19.459Z,5.80
2019-03-11T16:10:51.712Z,5.80
2019-03-11T16:13:24.421Z,5.90
2019-03-11T16:15:56.889Z,6.00
2019-03-11T16:18:29.250Z,6.00
2019-03-11T16:21:01.244Z,5.90
2019-03-11T16:23:33.403Z,5.80
2019-03-11T16:26:06.415Z,5.70
2019-03-11T16:28:47.681Z,5.50
2019-03-11T16:31:14.693Z,5.10
2019-03-11T16:33:48.397Z,4.90
2019-03-11T16:36:20.910Z,4.80
2019-03-11T16:38:54.385Z,4.70
2019-03-11T16:41:26.672Z,4.80
2019-03-11T16:43:59.368Z,4.70
2019-03-11T16:46:33.670Z,4.60
2019-03-11T16:49:06.467Z,4.50
2019-03-11T16:51:41.386Z,4.40
2019-03-11T16:54:15.137Z,4.30
2019-03-11T16:56:48.188Z,4.20
2019-03-11T16:59:21.906Z,4.20
2019-03-11T17:01:55.592Z,4.20
2019-03-11T17:04:27.762Z,4.20
2019-03-11T17:07:00.991Z,4.00
2019-03-11T17:09:36.054Z,4.00
2019-03-11T17:12:08.759Z,3.90
2019-03-11T17:14:40.863Z,3.90
2019-03-11T17:17:13.883Z,3.80
2019-03-11T17:19:47.193Z,3.80
2019-03-11T17:22:19.391Z,3.70
2019-03-11T17:24:53.945Z,3.70
2019-03-11T17:27:27.750Z,3.60
2019-03-11T17:30:01.442Z,3.60
2019-03-11T17:32:33.916Z,3.60
2019-03-11T17:35:06.672Z,3.60
2019-03-11T17:37:39.988Z,3.60
2019-03-11T17:40:13.879Z,3.60
2019-03-11T17:42:47.078Z,3.60
2019-03-11T17:45:20.960Z,3.60
2019-03-11T17:47:53.187Z,3.60
2019-03-11T17:50:25.462Z,3.60
2019-03-11T17:52:58.311Z,3.60
2019-03-11T17:55:32.113Z,3.60
2019-03-11T17:58:04.684Z,3.50
2019-03-11T18:00:38.893Z,3.60
2019-03-11T18:03:11.105Z,3.60
2019-03-11T18:05:43.577Z,3.60
2019-03-11T18:08:17.807Z,3.50
2019-03-11T18:10:51.251Z,3.60
2019-03-11T18:13:24.206Z,3.50
2019-03-11T18:15:56.238Z,3.60
2019-03-11T18:18:33.598Z,3.60
2019-03-11T18:21:07.018Z,3.60
2019-03-11T18:23:40.178Z,3.60
2019-03-11T18:26:13.286Z,3.60
2019-03-11T18:28:45.207Z,3.60
2019-03-11T18:31:18.414Z,3.60
2019-03-11T18:33:51.174Z,3.50
2019-03-11T18:36:26.119Z,3.50
2019-03-11T18:38:58.506Z,3.60
2019-03-11T18:41:30.497Z,3.60
2019-03-11T18:44:04.048Z,3.60
2019-03-11T18:46:37.414Z,3.60
2019-03-11T18:49:12.812Z,3.60
2019-03-11T18:51:45.009Z,3.60
2019-03-11T18:54:18.448Z,3.60
2019-03-11T18:56:51.348Z,3.70
2019-03-11T18:59:23.920Z,3.70
2019-03-11T19:01:56.392Z,3.70
2019-03-11T19:04:31.599Z,3.80
2019-03-11T19:07:03.525Z,3.80
2019-03-11T19:09:35.756Z,3.80
2019-03-11T19:12:09.017Z,3.90
2019-03-11T19:14:41.562Z,3.90
2019-03-11T19:17:14.856Z,3.90
2019-03-11T19:19:46.988Z,3.90
2019-03-11T19:22:19.174Z,3.90
2019-03-11T19:24:52.053Z,4.00
2019-03-11T19:27:25.168Z,4.00
2019-03-11T19:29:58.675Z,4.00
2019-03-11T19:32:31.150Z,4.00
2019-03-11T19:35:05.160Z,4.00
2019-03-11T19:37:39.993Z,4.10
2019-03-11T19:40:14.040Z,4.10
2019-03-11T19:42:47.546Z,4.20
2019-03-11T19:45:22.050Z,4.20
2019-03-11T19:47:55.281Z,4.20
2019-03-11T19:50:29.124Z,4.20
2019-03-11T19:53:03.106Z,4.20
2019-03-11T19:55:37.703Z,4.20
2019-03-11T19:58:10.156Z,4.20
2019-03-11T20:00:43.831Z,4.20
2019-03-11T20:03:26.502Z,4.30
2019-03-11T20:05:50.626Z,4.20
2019-03-11T20:08:23.606Z,4.20
2019-03-11T20:10:57.846Z,4.20
2019-03-11T20:13:29.890Z,4.20
2019-03-11T20:16:02.165Z,4.20
2019-03-11T20:18:34.267Z,4.30
2019-03-11T20:21:10.167Z,4.40
2019-03-11T20:23:43.021Z,4.40
2019-03-11T20:26:18.399Z,4.50
2019-03-11T20:28:50.507Z,4.60
2019-03-11T20:31:24.083Z,4.70
2019-03-11T20:33:57.144Z,4.80
2019-03-11T20:36:29.388Z,4.80
2019-03-11T20:39:02.961Z,4.90
2019-03-11T20:41:37.071Z,4.90
2019-03-11T20:44:11.077Z,5.00
2019-03-11T20:46:43.062Z,5.00
2019-03-11T20:49:16.714Z,5.00
2019-03-11T20:51:49.326Z,5.00
2019-03-11T20:54:23.406Z,5.00
2019-03-11T20:56:56.651Z,5.10
2019-03-11T20:59:29.412Z,5.10
2019-03-11T21:02:01.427Z,5.00
2019-03-11T21:04:34.425Z,5.10
2019-03-11T21:07:06.741Z,5.10
2019-03-11T21:09:39.220Z,5.00
2019-03-11T21:12:12.720Z,4.90
2019-03-11T21:14:45.334Z,4.60
2019-03-11T21:17:25.575Z,4.20
2019-03-11T21:19:53.566Z,4.00
2019-03-11T21:22:25.641Z,3.80
2019-03-11T21:24:59.849Z,3.70
2019-03-11T21:27:31.325Z,3.60
2019-03-11T21:30:04.759Z,3.50
2019-03-11T21:32:38.420Z,3.50
2019-03-11T21:35:10.606Z,3.50
2019-03-11T21:37:43.704Z,3.50
2019-03-11T21:40:17.039Z,3.50
2019-03-11T21:42:49.673Z,3.50
2019-03-11T21:45:33.443Z,3.60
2019-03-11T21:47:57.003Z,3.60
2019-03-11T21:50:29.116Z,3.50
2019-03-11T21:53:01.547Z,3.50
2019-03-11T21:55:34.390Z,3.40
2019-03-11T21:58:13.163Z,3.30
2019-03-11T22:00:41.358Z,3.30
2019-03-11T22:03:21.927Z,3.20
2019-03-11T22:05:53.754Z,3.30
2019-03-11T22:08:25.595Z,3.30
2019-03-11T22:10:57.610Z,3.40
2019-03-11T22:13:29.960Z,3.40
2019-03-11T22:16:02.834Z,3.50
2019-03-11T22:18:35.143Z,3.60
2019-03-11T22:21:07.418Z,3.70
2019-03-11T22:23:42.104Z,3.80
2019-03-11T22:26:13.464Z,3.80
2019-03-11T22:28:45.947Z,3.90
2019-03-11T22:31:18.264Z,4.00
2019-03-11T22:33:50.244Z,4.00
2019-03-11T22:36:22.175Z,4.00
2019-03-11T22:38:54.153Z,4.00
2019-03-11T22:41:26.021Z,4.10
2019-03-11T22:43:58.129Z,4.10
2019-03-11T22:46:30.957Z,4.10
2019-03-11T22:49:02.962Z,4.10
2019-03-11T22:51:35.305Z,4.10
2019-03-11T22:54:09.063Z,4.00
2019-03-11T22:56:41.011Z,4.00
2019-03-11T22:59:12.943Z,3.90
2019-03-11T23:01:45.405Z,3.90
2019-03-11T23:04:17.291Z,3.90
2019-03-11T23:06:49.693Z,3.90
2019-03-11T23:09:21.802Z,3.90
2019-03-11T23:11:53.675Z,3.90
2019-03-11T23:14:25.530Z,3.90
2019-03-11T23:16:57.900Z,3.90
2019-03-11T23:19:29.823Z,4.00
2019-03-11T23:22:02.294Z,4.00
2019-03-11T23:24:34.266Z,4.00
2019-03-11T23:27:06.699Z,4.10
2019-03-11T23:29:39.192Z,4.10
2019-03-11T23:32:11.169Z,4.10
2019-03-11T23:34:43.228Z,4.10
2019-03-11T23:37:18.715Z,4.20
2019-03-11T23:39:50.902Z,4.20
2019-03-11T23:42:23.213Z,4.30
2019-03-11T23:44:55.585Z,4.30
2019-03-11T23:47:27.423Z,4.30
2019-03-11T23:49:59.348Z,4.40
2019-03-11T23:52:31.204Z,4.40
2019-03-11T23:55:03.143Z,4.40
2019-03-11T23:57:35.419Z,4.40
